X  Kiinni Metar Aviation säätiedot     EDDH Hamburg Helmut Schmidt Airport
Lämpötila
18°C Lämpötila
17°C Kastepiste
94% Kosteus



Tuuli
10 KM/T
6 MPH
3 M/S
5 KTS



280°
L
Nykyiset olosuhteet

Kirkas Kirkas
Paine 1014.9 (hPa) - 29.97 (inHg)
Näkyvyys 6 (maili) - 9.7 (km)
Lentokenttä
Lentokentän koodi EDDH

Sijainti: Hamburg Helmut Schmidt Airport
Etäisyys: 11 (km)

Metar:
EDDH 232120Z AUTO 28005KT CAVOK 18/17 Q1015 NOSIG

Aika: 23-07-2024 23:20 CEST